San Rafael, CA (94901)

6:02 AM PDT en Octubre 20, 2014 (GMT -0700)
Belle Avenue | Change Station
CLOSE
Current Station
Estación meteorológica personal
Location: San Rafael, CA
Altura: 256 ft
Estaciones meteorológicas cercanas

Alt 256 ft 37.97 °N, 122.51 °W | Updated 11 seconds ago

Parcialmente nublado
Parcialmente nublado
61.3 ° F
Sensación térmica 61.3 ° F
N
2.0
Viento Variable Viento desde NNE
Gusts 2.5 mph

Hoy
Alta -- | Baja -- ° F
--% Posibilidad de precipitaciones
Ayer
Alta -- | Baja -- ° F
Precip. -- pul
7:23 AM 6:25 PM
Creciente menguante, 11% visible
Presión 29.92 pul
Visibilidad 10.0 Millas
Nubes Despejado
Punto de rocío 48 ° F
Humedad 62%
Precipitaciones 0.00 pul
Espesor de la nieve No disponible.
UV 0 de una escala de 12
Polen 1.80 de una escala de 12
Calidad del aire No disponible.
Flu Activity Sporadic
METAR KO69 201255Z AUTO 14003KT 10SM CLR 14/13 A2992 RMK AO1

More Conditions Fewer Conditions

Presión 29.92 pul
Visibilidad 10.0 Millas
Nubes Despejado
Punto de rocío 48 ° F
Humedad 62%
Precipitaciones 0.00 pul
Espesor de la nieve No disponible.
UV 0 de una escala de 12
Polen 1.80 de una escala de 12
Calidad del aire No disponible.
Flu Activity Sporadic
METAR KO69 201255Z AUTO 14003KT 10SM CLR 14/13 A2992 RMK AO1

More Conditions Fewer Conditions

10-Day Weather Forecast

Almanac

Astronomía

Oct. 20, 2014 Salida Puesta
Hora real 7:23 AM PDT 6:25 PM PDT
Crepúsculo civil 6:56 AM PDT 6:52 PM PDT
Crepúsculo náutico 6:26 AM PDT 7:22 PM PDT
Crepúsculo astronómico 5:55 AM PDT 7:53 PM PDT
Luna 4:19 AM PDT 4:48 PM PDT
Horas de luz 11h 55m
Horas de luz
11h 01m
Creciente menguante, 11% of the Moon is Illuminated
Hoy
Creciente menguante
Oct 23
Nueva
Oct 30
Cuarto creciente
Nov 6
Luna llena
Nov 14
Cuarto menguante

Extremos de hoy

Máximos del estado Bajos del estado

Community

WunderPhotos

Upload Photos

1,763,363 ¡fotos cargadas!

Nearby

Calidad del aire

  Calidad del aire Índice AQ Contaminante
Ayer Buena
OZONE
Lunes Buena
PM2.5
Martes Buena
PM2.5
Miércoles Buena
PM2.5

Grosos de nieve

Estación Profundido Altura
Echo Peak 0 in 7800 ft
Forestdale Creek 0 in 8029 ft
Rubicon #2 1 in 7500 ft
Blue Lakes 0 in 8000 ft
Squaw Valley 0 in 8200 ft

Actividad de terremotos

Ciudad Distance Mag. Tiempo y dato
Cobb, California 62 Millas 2.5 9:25 PM PDT
2014-10-19
Soledad, California 123 Millas 2.6 3:21 PM PDT
2014-10-18
East Foothills, California 59 Millas 2.6 8:16 AM PDT
2014-10-18
Magnitud mínima muestra es 2,5.

Temperaturas de aguas costeras

Lugar Temperatura
San Francisco, CA 63.0 ° F
Richmond, CA 64.0 ° F
Port Chicago, CA 66.9 ° F

Estaciones meteorológicas cercanas